Time;durP1;ratioP1;P1;durP2;ratioP2;P2;SDS_P1;SDS_P2;PMS_P1;PMS_P2;Temp;Humidity;BMP_temperature;BMP_pressure;BME280_temperature;BME280_humidity;BME280_pressure;Samples;Min_cycle;Max_cycle;Signal;HPM_P1;HPM_P2
2023/06/08 00:01:35;;;;;;;14.70;6.10;;;19.60;85.70;;;;;;5126513;27;45463;-73
2023/06/08 00:04:05;;;;;;;10.38;5.68;;;19.50;85.70;;;;;;5117796;27;48210;-73
2023/06/08 00:06:33;;;;;;;7.10;5.07;;;19.50;86.30;;;;;;5122092;27;45301;-73
2023/06/08 00:09:04;;;;;;;9.73;5.55;;;19.40;86.40;;;;;;5120613;27;45383;-73
2023/06/08 00:11:31;;;;;;;10.63;5.97;;;19.40;86.60;;;;;;5123391;27;45412;-73
2023/06/08 00:13:58;;;;;;;7.78;5.45;;;19.40;86.50;;;;;;5115835;27;47377;-73
2023/06/08 00:16:25;;;;;;;12.10;5.60;;;19.40;86.30;;;;;;5114862;27;45299;-73
2023/06/08 00:18:56;;;;;;;9.43;5.50;;;19.50;86.30;;;;;;5120054;27;45241;-72
2023/06/08 00:21:23;;;;;;;12.02;5.78;;;19.50;85.70;;;;;;5126368;27;45257;-74
2023/06/08 00:23:50;;;;;;;11.95;5.97;;;19.50;85.50;;;;;;5122225;27;48186;-73
2023/06/08 00:26:17;;;;;;;11.77;5.82;;;19.50;85.90;;;;;;5126162;27;45312;-73
2023/06/08 00:28:47;;;;;;;10.32;5.72;;;19.40;86.10;;;;;;5124818;27;45304;-73
2023/06/08 00:31:14;;;;;;;11.25;5.82;;;19.50;86.30;;;;;;5112223;27;45478;-73
2023/06/08 00:33:40;;;;;;;14.85;5.78;;;19.40;85.90;;;;;;5117437;27;45404;-72
2023/06/08 00:36:09;;;;;;;8.55;4.75;;;19.50;85.70;;;;;;5111245;27;45407;-73
2023/06/08 00:38:35;;;;;;;12.98;4.90;;;19.50;85.40;;;;;;5119000;27;45488;-73
2023/06/08 00:41:03;;;;;;;11.40;4.53;;;19.50;85.30;;;;;;5121899;27;45506;-73
2023/06/08 00:43:30;;;;;;;11.15;5.25;;;19.60;85.30;;;;;;5105895;27;47346;-73
2023/06/08 00:45:57;;;;;;;13.30;5.15;;;19.50;85.60;;;;;;5122931;27;45510;-72
2023/06/08 00:48:25;;;;;;;8.95;4.97;;;19.40;85.60;;;;;;5126648;27;45337;-73
2023/06/08 00:50:54;;;;;;;10.15;4.82;;;19.50;85.30;;;;;;5119401;27;45271;-73
2023/06/08 00:53:23;;;;;;;11.57;4.70;;;19.50;85.40;;;;;;5119037;27;45582;-73
2023/06/08 00:55:51;;;;;;;10.43;4.82;;;19.50;84.90;;;;;;5118857;27;45452;-73
2023/06/08 00:58:19;;;;;;;14.35;5.30;;;19.50;85.00;;;;;;5117611;27;45472;-73
2023/06/08 01:00:46;;;;;;;10.52;4.68;;;19.40;85.30;;;;;;5126124;27;45328;-73
2023/06/08 01:03:14;;;;;;;9.93;4.90;;;19.40;85.70;;;;;;5120535;27;47318;-73
2023/06/08 01:05:43;;;;;;;10.60;4.90;;;19.40;85.70;;;;;;5113271;27;45429;-72
2023/06/08 01:08:20;;;;;;;8.32;5.00;;;19.30;85.60;;;;;;5125526;27;45357;-73
2023/06/08 01:10:58;;;;;;;7.05;4.25;;;19.30;85.50;;;;;;5111003;27;45406;-73
2023/06/08 01:13:29;;;;;;;7.93;4.68;;;19.40;85.20;;;;;;5120725;27;46863;-73
2023/06/08 01:16:02;;;;;;;10.38;4.88;;;19.40;84.90;;;;;;5125459;27;45424;-72
2023/06/08 01:18:32;;;;;;;9.68;4.93;;;19.50;84.90;;;;;;5112969;27;45368;-73
2023/06/08 01:21:10;;;;;;;8.10;4.70;;;19.40;85.40;;;;;;5123388;27;45440;-73
2023/06/08 01:23:46;;;;;;;8.70;4.80;;;19.30;85.70;;;;;;5119191;27;45461;-73
2023/06/08 01:26:18;;;;;;;12.05;4.80;;;19.30;86.10;;;;;;5119564;27;45388;-72
2023/06/08 01:28:48;;;;;;;10.30;4.60;;;19.20;86.40;;;;;;5119594;27;45402;-72
2023/06/08 01:31:15;;;;;;;10.02;5.25;;;19.20;86.20;;;;;;5108240;27;45391;-73
2023/06/08 01:33:43;;;;;;;8.05;4.60;;;19.30;85.90;;;;;;5119959;27;46418;-73
2023/06/08 01:36:18;;;;;;;7.53;4.43;;;19.40;85.30;;;;;;5114209;27;45632;-73
2023/06/08 01:38:52;;;;;;;8.98;4.70;;;19.40;85.10;;;;;;5118799;27;45429;-73
2023/06/08 01:41:23;;;;;;;7.28;4.22;;;19.40;85.00;;;;;;5118576;27;45288;-73
2023/06/08 01:43:52;;;;;;;11.38;4.55;;;19.40;85.20;;;;;;5122053;27;46242;-72
2023/06/08 01:46:21;;;;;;;16.42;5.25;;;19.30;85.90;;;;;;5113611;27;45714;-73
2023/06/08 01:48:50;;;;;;;9.45;4.50;;;19.20;86.30;;;;;;5116640;27;45271;-73
2023/06/08 01:51:18;;;;;;;8.52;4.93;;;19.10;86.30;;;;;;5117832;27;45583;-73
2023/06/08 01:53:45;;;;;;;11.98;5.03;;;19.20;86.40;;;;;;5121566;27;45401;-73
2023/06/08 01:56:11;;;;;;;8.57;4.53;;;19.20;86.20;;;;;;5115758;27;45445;-73
2023/06/08 01:58:39;;;;;;;12.18;5.05;;;19.30;86.20;;;;;;5122390;27;45225;-73
2023/06/08 02:01:06;;;;;;;11.93;4.80;;;19.30;85.60;;;;;;5116776;27;45472;-73
2023/06/08 02:03:33;;;;;;;13.45;4.60;;;19.30;85.40;;;;;;5121598;27;47522;-72
2023/06/08 02:06:00;;;;;;;9.85;4.65;;;19.30;85.60;;;;;;5112210;27;45302;-72
2023/06/08 02:08:26;;;;;;;11.25;4.50;;;19.30;85.70;;;;;;5110185;27;45437;-73
2023/06/08 02:10:53;;;;;;;10.70;4.63;;;19.30;85.70;;;;;;5120999;27;45322;-73
2023/06/08 02:13:20;;;;;;;8.73;4.80;;;19.30;85.60;;;;;;5118696;27;47447;-73
2023/06/08 02:15:48;;;;;;;13.73;5.05;;;19.30;85.90;;;;;;5123571;27;45351;-73
2023/06/08 02:18:15;;;;;;;9.60;4.53;;;19.30;85.80;;;;;;5115494;27;45351;-73
2023/06/08 02:20:42;;;;;;;11.82;5.00;;;19.30;86.00;;;;;;5112947;27;45429;-73
2023/06/08 02:23:09;;;;;;;12.05;4.93;;;19.20;86.30;;;;;;5115271;27;47990;-73
2023/06/08 02:25:35;;;;;;;16.42;4.32;;;19.20;86.30;;;;;;5124116;27;45269;-73
2023/06/08 02:28:02;;;;;;;9.38;5.35;;;19.30;86.10;;;;;;5114505;27;45268;-73
2023/06/08 02:30:30;;;;;;;9.95;4.70;;;19.20;86.10;;;;;;5122546;27;45394;-73
2023/06/08 02:32:59;;;;;;;10.00;5.25;;;19.20;86.60;;;;;;5112309;27;47780;-73
2023/06/08 02:35:26;;;;;;;12.35;4.60;;;19.10;86.40;;;;;;5120804;27;45533;-73
2023/06/08 02:37:53;;;;;;;10.20;5.13;;;19.10;86.30;;;;;;5121735;27;45475;-73
2023/06/08 02:40:19;;;;;;;9.70;5.00;;;19.20;86.40;;;;;;5117859;27;45446;-73
2023/06/08 02:42:46;;;;;;;9.05;5.10;;;19.10;86.50;;;;;;5105566;27;45481;-73
2023/06/08 02:45:13;;;;;;;12.57;4.97;;;19.00;86.90;;;;;;5110569;27;45253;-73
2023/06/08 02:47:40;;;;;;;10.77;5.22;;;19.00;87.40;;;;;;5120732;27;45322;-73
2023/06/08 02:50:08;;;;;;;12.73;5.85;;;18.90;87.50;;;;;;5124213;27;45588;-73
2023/06/08 02:52:35;;;;;;;9.43;5.20;;;18.90;88.20;;;;;;5123416;27;47196;-73
2023/06/08 02:55:02;;;;;;;9.50;4.85;;;18.90;87.80;;;;;;5113835;27;45272;-73
2023/06/08 02:57:29;;;;;;;12.13;5.30;;;18.90;88.00;;;;;;5109151;27;45511;-73
2023/06/08 02:59:56;;;;;;;12.52;5.15;;;18.90;88.00;;;;;;5112545;27;45694;-73
2023/06/08 03:02:23;;;;;;;10.85;5.07;;;18.90;88.10;;;;;;5118438;27;48334;-72
2023/06/08 03:04:52;;;;;;;14.02;4.90;;;18.80;88.00;;;;;;5110354;27;45454;-72
2023/06/08 03:07:20;;;;;;;13.65;5.50;;;18.90;87.80;;;;;;5117780;27;45448;-72
2023/06/08 03:09:47;;;;;;;12.77;4.93;;;18.90;87.70;;;;;;5116461;27;45316;-72
2023/06/08 03:12:13;;;;;;;12.52;5.15;;;18.90;87.90;;;;;;5107754;27;46542;-72
2023/06/08 03:14:40;;;;;;;12.30;4.50;;;18.90;87.70;;;;;;5111726;27;45332;-73
2023/06/08 03:17:08;;;;;;;11.55;5.13;;;18.80;87.80;;;;;;5116668;27;45277;-72
2023/06/08 03:19:35;;;;;;;11.68;5.20;;;18.80;87.80;;;;;;5123411;27;45322;-73
2023/06/08 03:22:04;;;;;;;14.63;5.35;;;18.80;87.90;;;;;;5116643;27;48579;-72
2023/06/08 03:24:33;;;;;;;13.55;5.20;;;18.70;88.10;;;;;;5122414;27;45427;-72
2023/06/08 03:27:00;;;;;;;12.27;5.18;;;18.70;87.70;;;;;;5105009;27;45317;-72
2023/06/08 03:29:27;;;;;;;11.15;5.35;;;18.70;87.70;;;;;;5114113;27;45493;-72
2023/06/08 03:31:54;;;;;;;10.95;5.20;;;18.80;87.40;;;;;;5115503;27;45672;-73
2023/06/08 03:34:23;;;;;;;9.50;4.80;;;18.80;87.30;;;;;;5115408;27;45327;-72
2023/06/08 03:36:50;;;;;;;14.38;4.95;;;18.70;87.40;;;;;;5122781;27;45341;-73
2023/06/08 03:39:17;;;;;;;8.25;4.75;;;18.70;87.20;;;;;;5119759;27;45267;-72
2023/06/08 03:41:45;;;;;;;10.20;4.75;;;18.70;87.10;;;;;;5119072;27;48464;-72
2023/06/08 03:44:11;;;;;;;13.50;4.95;;;18.70;87.10;;;;;;5116821;27;45963;-72
2023/06/08 03:46:38;;;;;;;9.70;5.03;;;18.70;87.30;;;;;;5112452;27;45323;-73
2023/06/08 03:49:05;;;;;;;13.25;5.72;;;18.70;88.00;;;;;;5114499;27;45502;-73
2023/06/08 03:51:32;;;;;;;12.50;5.00;;;18.60;87.40;;;;;;5123032;27;45622;-72
2023/06/08 03:53:59;;;;;;;11.02;4.70;;;18.60;87.30;;;;;;5113999;27;45290;-73
2023/06/08 03:56:26;;;;;;;11.45;5.22;;;18.70;87.10;;;;;;5116961;27;45473;-73
2023/06/08 03:58:56;;;;;;;11.25;5.18;;;18.70;86.80;;;;;;5115019;27;45410;-73
2023/06/08 04:01:23;;;;;;;12.45;4.97;;;18.70;87.00;;;;;;5117764;27;46738;-72
2023/06/08 04:03:51;;;;;;;8.63;4.45;;;18.70;86.80;;;;;;5120750;27;45604;-73
2023/06/08 04:06:18;;;;;;;15.98;5.13;;;18.80;86.30;;;;;;5109716;27;45358;-73
2023/06/08 04:08:45;;;;;;;12.45;5.57;;;18.80;86.40;;;;;;5118656;27;45903;-73
2023/06/08 04:11:12;;;;;;;11.50;4.88;;;18.80;86.30;;;;;;5113088;27;46356;-72
2023/06/08 04:13:40;;;;;;;13.02;5.13;;;18.70;86.30;;;;;;5115147;27;45350;-73
2023/06/08 04:16:10;;;;;;;9.63;4.93;;;18.70;86.40;;;;;;5110687;27;45456;-73
2023/06/08 04:18:39;;;;;;;14.52;5.38;;;18.70;86.40;;;;;;5120801;27;45290;-73
2023/06/08 04:21:06;;;;;;;14.80;5.53;;;18.70;86.40;;;;;;5121950;27;45526;-72
2023/06/08 04:23:33;;;;;;;8.80;4.82;;;18.60;86.40;;;;;;5111452;27;45485;-73
2023/06/08 04:26:00;;;;;;;11.40;5.25;;;18.70;86.40;;;;;;5114545;27;45218;-73
2023/06/08 04:28:28;;;;;;;16.73;5.28;;;18.70;86.00;;;;;;5109766;27;45395;-73
2023/06/08 04:30:59;;;;;;;13.52;4.85;;;18.70;85.60;;;;;;5119046;27;47943;-73
2023/06/08 04:33:27;;;;;;;10.77;4.80;;;18.70;85.70;;;;;;5125688;27;45308;-72
2023/06/08 04:35:54;;;;;;;8.55;4.57;;;18.70;85.60;;;;;;5114313;27;45298;-72
2023/06/08 04:38:21;;;;;;;18.02;5.15;;;18.80;85.40;;;;;;5125886;27;45336;-72
2023/06/08 04:40:49;;;;;;;16.27;5.68;;;18.70;85.70;;;;;;5121283;27;47531;-72
2023/06/08 04:43:17;;;;;;;9.90;4.90;;;18.70;85.90;;;;;;5111670;27;46601;-72
2023/06/08 04:45:45;;;;;;;9.13;4.85;;;18.70;85.90;;;;;;5107737;27;45374;-73
2023/06/08 04:48:12;;;;;;;13.48;4.57;;;18.70;85.70;;;;;;5119722;27;45598;-72
2023/06/08 04:50:45;;;;;;;9.23;4.93;;;18.70;85.80;;;;;;5115669;27;45390;-72
2023/06/08 04:53:12;;;;;;;11.02;5.18;;;18.70;85.60;;;;;;5115077;27;45339;-73
2023/06/08 04:55:44;;;;;;;14.80;5.10;;;18.70;85.80;;;;;;5123049;27;45413;-73
2023/06/08 04:58:11;;;;;;;11.13;4.90;;;18.70;85.60;;;;;;5113678;27;45466;-72
2023/06/08 05:00:38;;;;;;;10.85;5.15;;;18.70;85.40;;;;;;5125115;27;46599;-73
2023/06/08 05:03:05;;;;;;;8.55;4.80;;;18.60;85.90;;;;;;5124653;27;45658;-73
2023/06/08 05:05:32;;;;;;;14.15;5.13;;;18.70;85.60;;;;;;5123098;27;45279;-72
2023/06/08 05:08:00;;;;;;;10.50;5.20;;;18.80;86.00;;;;;;5124513;27;45466;-73
2023/06/08 05:10:27;;;;;;;15.43;5.70;;;18.80;84.70;;;;;;5124073;27;46078;-72
2023/06/08 05:12:55;;;;;;;10.70;5.20;;;18.80;84.90;;;;;;5122715;27;45635;-73
2023/06/08 05:15:22;;;;;;;13.73;5.03;;;18.80;84.70;;;;;;5123027;27;45405;-72
2023/06/08 05:17:49;;;;;;;12.18;5.07;;;18.80;85.20;;;;;;5116102;27;45601;-72
2023/06/08 05:20:16;;;;;;;14.10;5.28;;;18.80;85.10;;;;;;5125748;27;45396;-72
2023/06/08 05:22:43;;;;;;;17.85;5.80;;;18.90;84.60;;;;;;5121032;27;45427;-72
2023/06/08 05:25:11;;;;;;;9.77;4.75;;;18.90;84.90;;;;;;5124692;27;45296;-73
2023/06/08 05:27:38;;;;;;;11.48;4.80;;;18.80;84.70;;;;;;5122145;27;45534;-72
2023/06/08 05:30:05;;;;;;;12.65;4.90;;;18.80;85.00;;;;;;5123446;27;45706;-72
2023/06/08 05:32:32;;;;;;;14.32;5.35;;;18.90;84.70;;;;;;5123544;27;45407;-73
2023/06/08 05:35:00;;;;;;;11.13;4.97;;;19.00;84.70;;;;;;5106835;27;45351;-72
2023/06/08 05:37:27;;;;;;;16.90;5.43;;;18.90;84.50;;;;;;5116737;27;45604;-72
2023/06/08 05:39:53;;;;;;;11.48;5.53;;;18.90;84.30;;;;;;5121980;27;48107;-73
2023/06/08 05:42:21;;;;;;;15.02;5.47;;;18.90;84.30;;;;;;5117495;27;45437;-72
2023/06/08 05:44:50;;;;;;;12.35;5.03;;;19.10;83.80;;;;;;5116553;27;45326;-73
2023/06/08 05:47:17;;;;;;;11.65;5.20;;;19.00;84.10;;;;;;5120048;27;45431;-73
2023/06/08 05:49:44;;;;;;;16.23;5.30;;;18.90;84.20;;;;;;5117303;27;46075;-73
2023/06/08 05:52:11;;;;;;;11.77;5.35;;;18.90;84.30;;;;;;5124249;27;45512;-73
2023/06/08 05:54:38;;;;;;;13.48;5.53;;;18.90;84.60;;;;;;5124777;27;45467;-73
2023/06/08 05:57:05;;;;;;;11.20;5.80;;;18.90;84.70;;;;;;5123604;27;45584;-73
2023/06/08 05:59:33;;;;;;;12.88;5.63;;;18.90;84.20;;;;;;5122128;27;45466;-73
2023/06/08 06:02:00;;;;;;;14.73;5.88;;;18.90;84.20;;;;;;5123550;27;45584;-73
2023/06/08 06:04:27;;;;;;;14.70;5.22;;;18.90;84.70;;;;;;5120367;27;45537;-73
2023/06/08 06:06:53;;;;;;;11.48;5.93;;;18.90;84.20;;;;;;5123040;27;45320;-72
2023/06/08 06:09:20;;;;;;;13.23;5.50;;;18.80;84.20;;;;;;5122895;27;47775;-76
2023/06/08 06:11:48;;;;;;;9.02;5.28;;;18.80;84.30;;;;;;5126374;27;45399;-74
2023/06/08 06:14:14;;;;;;;15.35;4.95;;;18.90;84.00;;;;;;5114024;27;45306;-74
2023/06/08 06:16:43;;;;;;;12.52;5.68;;;18.90;84.10;;;;;;5116258;27;45359;-74
2023/06/08 06:19:09;;;;;;;17.63;5.90;;;19.00;84.00;;;;;;5120858;27;46825;-74
2023/06/08 06:21:36;;;;;;;17.15;6.07;;;19.00;84.00;;;;;;5116438;27;45272;-73
2023/06/08 06:24:04;;;;;;;12.60;5.50;;;19.00;83.90;;;;;;5104475;27;45248;-73
2023/06/08 06:26:31;;;;;;;11.23;5.88;;;19.10;83.90;;;;;;5105633;27;45585;-73
2023/06/08 06:28:57;;;;;;;10.45;5.18;;;19.00;83.80;;;;;;5120649;27;48596;-73
2023/06/08 06:31:24;;;;;;;15.35;6.10;;;19.00;84.00;;;;;;5122854;27;45303;-73
2023/06/08 06:33:52;;;;;;;14.60;6.25;;;19.00;84.00;;;;;;5121847;27;45439;-73
2023/06/08 06:36:19;;;;;;;24.33;6.13;;;19.10;83.60;;;;;;5123658;27;45514;-73
2023/06/08 06:38:47;;;;;;;14.43;5.85;;;19.10;83.50;;;;;;5122895;27;47376;-73
2023/06/08 06:41:13;;;;;;;13.50;6.45;;;19.00;83.90;;;;;;5118104;27;45485;-72
2023/06/08 06:43:40;;;;;;;15.52;5.80;;;19.10;83.50;;;;;;5122714;27;45486;-73
2023/06/08 06:46:08;;;;;;;11.45;6.25;;;19.10;83.80;;;;;;5115098;27;45397;-73
2023/06/08 06:48:35;;;;;;;8.98;5.40;;;19.30;82.80;;;;;;5110887;27;48528;-72
2023/06/08 06:51:03;;;;;;;10.63;5.68;;;19.30;83.10;;;;;;5106600;27;45366;-73
2023/06/08 06:53:30;;;;;;;12.13;5.90;;;19.40;82.90;;;;;;5107410;27;45432;-73
2023/06/08 06:55:56;;;;;;;13.95;5.93;;;19.40;82.20;;;;;;5116833;27;45346;-73
2023/06/08 06:58:24;;;;;;;9.60;5.15;;;19.40;82.80;;;;;;5114564;27;47121;-72
2023/06/08 07:00:51;;;;;;;11.00;5.88;;;19.40;82.40;;;;;;5112703;27;45439;-73
2023/06/08 07:03:18;;;;;;;14.15;6.78;;;19.50;82.40;;;;;;5115839;27;45469;-73
2023/06/08 07:05:45;;;;;;;8.07;5.35;;;19.50;82.40;;;;;;5118745;27;45358;-73
2023/06/08 07:08:13;;;;;;;13.68;6.35;;;19.50;82.60;;;;;;5118065;27;45486;-72
2023/06/08 07:10:40;;;;;;;16.15;6.30;;;19.40;83.10;;;;;;5118582;27;45429;-73
2023/06/08 07:13:07;;;;;;;13.10;4.90;;;19.50;82.80;;;;;;5123562;27;45441;-76
2023/06/08 07:15:33;;;;;;;11.98;5.25;;;19.50;82.40;;;;;;5127594;27;45255;-76
2023/06/08 07:18:00;;;;;;;9.35;5.63;;;19.50;82.20;;;;;;5127044;27;46544;-77
2023/06/08 07:20:27;;;;;;;11.15;5.90;;;19.50;82.80;;;;;;5127342;27;45246;-75
2023/06/08 07:22:54;;;;;;;11.57;6.20;;;19.50;82.70;;;;;;5127839;27;45355;-76
2023/06/08 07:25:22;;;;;;;12.55;6.25;;;19.50;82.60;;;;;;5126972;27;45572;-75
2023/06/08 07:27:49;;;;;;;11.20;5.82;;;19.50;83.10;;;;;;5124973;27;48266;-74
2023/06/08 07:30:16;;;;;;;15.63;5.18;;;19.40;83.40;;;;;;5122126;27;45331;-73
2023/06/08 07:32:44;;;;;;;10.75;5.80;;;19.50;83.30;;;;;;5123216;27;45220;-73
2023/06/08 07:35:11;;;;;;;13.43;5.13;;;19.50;83.50;;;;;;5116348;27;45493;-73
2023/06/08 07:37:38;;;;;;;14.30;5.53;;;19.60;83.50;;;;;;5119831;27;46403;-73
2023/06/08 07:40:07;;;;;;;16.23;6.18;;;19.60;83.10;;;;;;5121174;27;45725;-74
2023/06/08 07:42:35;;;;;;;18.58;6.20;;;19.60;82.70;;;;;;5116953;27;45435;-73
2023/06/08 07:45:02;;;;;;;12.43;5.53;;;19.70;82.30;;;;;;5104595;27;45424;-73
2023/06/08 07:47:29;;;;;;;10.15;5.55;;;19.60;82.60;;;;;;5106209;27;47541;-75
2023/06/08 07:49:56;;;;;;;9.50;5.07;;;19.70;82.60;;;;;;5120156;27;45146;-75
2023/06/08 07:52:23;;;;;;;10.32;5.53;;;19.70;82.50;;;;;;5114656;27;45216;-75
2023/06/08 07:54:50;;;;;;;12.15;6.55;;;19.80;82.20;;;;;;5123568;27;45396;-74
2023/06/08 07:57:18;;;;;;;9.25;5.40;;;19.80;82.60;;;;;;5114396;27;46627;-73
2023/06/08 07:59:46;;;;;;;13.90;5.82;;;19.80;82.20;;;;;;5120394;27;45670;-74
2023/06/08 08:02:13;;;;;;;19.70;5.80;;;19.80;82.60;;;;;;5123375;27;45453;-74
2023/06/08 08:04:40;;;;;;;10.60;6.05;;;19.60;83.30;;;;;;5114965;27;45442;-74
2023/06/08 08:07:07;;;;;;;18.50;5.93;;;19.50;84.10;;;;;;5125952;27;48052;-74
2023/06/08 08:09:33;;;;;;;10.40;5.55;;;19.50;84.90;;;;;;5129452;27;45540;-77
2023/06/08 08:12:00;;;;;;;10.93;5.43;;;19.60;83.00;;;;;;5126249;27;45232;-75
2023/06/08 08:14:27;;;;;;;12.57;5.75;;;19.80;83.20;;;;;;5122726;27;45149;-75
2023/06/08 08:16:55;;;;;;;11.18;6.20;;;19.80;83.20;;;;;;5121071;27;47343;-74
2023/06/08 08:19:22;;;;;;;8.40;5.38;;;19.80;83.90;;;;;;5119689;27;45426;-73
2023/06/08 08:21:49;;;;;;;11.70;5.72;;;19.80;82.40;;;;;;5125494;27;45356;-73
2023/06/08 08:24:16;;;;;;;10.73;5.63;;;19.90;82.00;;;;;;5117815;27;45382;-73
2023/06/08 08:26:43;;;;;;;13.50;6.05;;;19.90;82.40;;;;;;5114285;27;45468;-73
2023/06/08 08:29:10;;;;;;;10.48;5.40;;;19.90;82.60;;;;;;5122379;27;45331;-72
2023/06/08 08:31:37;;;;;;;9.32;5.38;;;19.90;82.10;;;;;;5107454;27;45351;-73
2023/06/08 08:34:05;;;;;;;12.57;5.38;;;20.00;82.20;;;;;;5114826;27;45257;-73
2023/06/08 08:36:32;;;;;;;13.45;5.78;;;20.00;81.80;;;;;;5106116;27;46477;-73
2023/06/08 08:38:58;;;;;;;12.18;5.28;;;20.10;82.80;;;;;;5114689;27;45346;-73
2023/06/08 08:41:28;;;;;;;11.68;5.03;;;20.10;82.20;;;;;;5117838;27;45351;-73
2023/06/08 08:44:00;;;;;;;12.60;6.05;;;20.10;82.10;;;;;;5106449;27;45311;-73
2023/06/08 08:46:29;;;;;;;11.93;5.68;;;20.10;83.80;;;;;;5112405;27;45362;-73
2023/06/08 08:48:58;;;;;;;11.77;6.00;;;20.10;83.00;;;;;;5120843;27;45397;-74
2023/06/08 08:51:26;;;;;;;11.48;5.72;;;20.10;82.60;;;;;;5123731;27;45349;-73
2023/06/08 08:53:55;;;;;;;10.70;5.57;;;20.10;82.70;;;;;;5109253;27;45584;-74
2023/06/08 08:56:25;;;;;;;12.10;5.68;;;20.10;83.00;;;;;;5119029;27;47256;-73
2023/06/08 08:58:53;;;;;;;11.82;5.15;;;20.20;82.10;;;;;;5106853;27;45346;-73
2023/06/08 09:01:20;;;;;;;7.10;5.00;;;20.20;82.90;;;;;;5105595;27;45408;-73
2023/06/08 09:03:47;;;;;;;13.95;5.40;;;20.20;82.20;;;;;;5115859;27;45426;-73
2023/06/08 09:06:14;;;;;;;8.77;5.00;;;20.20;82.10;;;;;;5126062;27;46244;-73
2023/06/08 09:08:42;;;;;;;10.77;5.10;;;20.20;81.90;;;;;;5105872;27;45375;-73
2023/06/08 09:11:11;;;;;;;11.27;4.72;;;20.20;82.60;;;;;;5117724;27;45337;-73
2023/06/08 09:13:39;;;;;;;10.85;5.88;;;20.20;82.20;;;;;;5107997;27;45372;-73
2023/06/08 09:16:10;;;;;;;14.90;6.30;;;20.20;82.60;;;;;;5104230;27;45325;-73
2023/06/08 09:18:37;;;;;;;15.35;7.03;;;20.20;81.50;;;;;;5104796;27;45280;-73
2023/06/08 09:21:21;;;;;;;8.98;5.35;;;20.30;82.80;;;;;;5125344;27;45302;-73
2023/06/08 09:24:06;;;;;;;13.55;5.70;;;20.30;82.50;;;;;;5108907;27;45525;-73
2023/06/08 09:26:34;;;;;;;15.02;6.78;;;20.20;82.30;;;;;;5116620;27;48331;-74
2023/06/08 09:29:02;;;;;;;8.32;5.07;;;20.30;82.40;;;;;;5117349;27;45520;-74
2023/06/08 09:31:30;;;;;;;13.98;6.65;;;20.30;82.60;;;;;;5125356;27;45518;-73
2023/06/08 09:34:07;;;;;;;9.63;5.82;;;20.40;84.80;;;;;;5116630;27;45274;-73
2023/06/08 09:36:37;;;;;;;11.77;5.57;;;20.40;81.50;;;;;;5124969;27;46563;-73
2023/06/08 09:39:07;;;;;;;9.55;5.40;;;20.40;82.30;;;;;;5112672;27;45449;-73
2023/06/08 09:41:37;;;;;;;11.93;5.43;;;20.30;82.10;;;;;;5122178;27;45515;-73
2023/06/08 09:44:16;;;;;;;16.30;6.22;;;20.40;82.40;;;;;;5112050;27;45517;-73
2023/06/08 09:46:45;;;;;;;9.05;5.90;;;20.30;84.40;;;;;;5114024;27;47944;-72
2023/06/08 09:49:13;;;;;;;15.35;6.93;;;20.30;82.80;;;;;;5125339;27;45430;-73
2023/06/08 09:51:46;;;;;;;12.63;6.13;;;20.40;84.10;;;;;;5116808;27;45307;-73
2023/06/08 09:54:16;;;;;;;10.13;6.10;;;20.60;84.70;;;;;;5118308;27;45277;-73
2023/06/08 09:56:46;;;;;;;12.18;5.78;;;20.50;81.50;;;;;;5113496;27;46848;-73
2023/06/08 09:59:16;;;;;;;11.85;6.32;;;20.50;83.20;;;;;;5124862;27;45347;-73
2023/06/08 10:01:45;;;;;;;14.43;6.20;;;20.50;83.30;;;;;;5124749;27;45275;-73
2023/06/08 10:04:21;;;;;;;11.15;6.47;;;20.50;83.20;;;;;;5121053;27;45349;-72
2023/06/08 10:06:52;;;;;;;9.25;5.68;;;20.40;84.20;;;;;;5113850;27;46100;-73
2023/06/08 10:09:24;;;;;;;9.43;5.68;;;20.30;85.20;;;;;;5120935;27;45217;-73
2023/06/08 10:11:52;;;;;;;9.80;5.13;;;20.30;84.30;;;;;;5113932;27;45408;-73
2023/06/08 10:14:19;;;;;;;12.90;6.05;;;20.40;85.00;;;;;;5114934;27;45418;-73
2023/06/08 10:16:48;;;;;;;8.65;5.47;;;20.30;82.90;;;;;;5124083;27;45313;-72
2023/06/08 10:19:15;;;;;;;12.68;5.72;;;20.30;84.90;;;;;;5124639;27;45389;-73
2023/06/08 10:21:42;;;;;;;17.52;6.30;;;20.30;85.70;;;;;;5124704;27;45429;-73
2023/06/08 10:24:10;;;;;;;11.95;6.03;;;20.40;86.10;;;;;;5116133;27;45427;-73
2023/06/08 10:26:38;;;;;;;12.25;6.20;;;20.40;85.70;;;;;;5114296;27;46809;-73
2023/06/08 10:29:06;;;;;;;9.68;4.95;;;20.30;84.90;;;;;;5110747;27;45457;-72
2023/06/08 10:31:36;;;;;;;13.25;5.65;;;20.30;84.70;;;;;;5104095;27;45346;-73
2023/06/08 10:34:07;;;;;;;15.60;7.03;;;20.40;86.60;;;;;;5104271;27;45355;-72
2023/06/08 10:36:36;;;;;;;15.82;6.57;;;20.50;86.50;;;;;;5112800;27;47503;-73
2023/06/08 10:39:10;;;;;;;15.57;6.00;;;20.60;87.00;;;;;;5116604;27;45521;-73
2023/06/08 10:41:46;;;;;;;10.25;5.47;;;20.50;86.40;;;;;;5123925;27;45358;-73
2023/06/08 10:44:27;;;;;;;10.95;5.68;;;20.50;87.10;;;;;;5107793;27;45407;-73
2023/06/08 10:47:01;;;;;;;12.05;5.93;;;20.50;85.00;;;;;;5106449;27;45209;-73
2023/06/08 10:49:32;;;;;;;8.80;5.25;;;20.50;83.30;;;;;;5123990;27;45284;-73
2023/06/08 10:52:00;;;;;;;9.40;5.13;;;20.30;85.70;;;;;;5111066;27;45390;-73
2023/06/08 10:54:28;;;;;;;9.95;5.40;;;20.30;86.60;;;;;;5110615;27;45312;-73
2023/06/08 10:56:58;;;;;;;6.72;5.00;;;20.40;87.90;;;;;;5114706;27;46290;-73
2023/06/08 10:59:35;;;;;;;8.07;5.43;;;20.40;86.70;;;;;;5124334;27;45837;-73
2023/06/08 11:02:04;;;;;;;7.30;4.90;;;20.60;87.50;;;;;;5120365;27;45469;-73
2023/06/08 11:04:31;;;;;;;7.35;4.65;;;20.50;84.30;;;;;;5108673;27;45200;-73
2023/06/08 11:07:02;;;;;;;7.85;5.20;;;20.40;83.10;;;;;;5102728;27;46453;-73
2023/06/08 11:09:31;;;;;;;10.55;5.25;;;20.40;87.30;;;;;;5102568;27;45482;-73
2023/06/08 11:12:00;;;;;;;9.90;5.20;;;20.50;87.40;;;;;;5106402;27;45412;-73
2023/06/08 11:14:27;;;;;;;8.05;4.95;;;20.60;85.80;;;;;;5122619;27;45422;-73
2023/06/08 11:16:55;;;;;;;8.27;5.00;;;20.60;83.80;;;;;;5123351;27;45378;-72
2023/06/08 11:19:22;;;;;;;7.90;5.28;;;20.50;87.50;;;;;;5122152;27;45247;-72
2023/06/08 11:21:54;;;;;;;10.43;5.10;;;20.40;87.30;;;;;;5106613;27;45461;-72
2023/06/08 11:24:25;;;;;;;8.45;5.57;;;20.40;84.00;;;;;;5109607;27;45267;-73
2023/06/08 11:26:57;;;;;;;9.05;4.68;;;20.40;83.60;;;;;;5110295;27;47263;-72
2023/06/08 11:29:25;;;;;;;8.55;5.38;;;20.30;84.30;;;;;;5120890;27;45475;-73
2023/06/08 11:31:51;;;;;;;10.35;5.57;;;20.20;83.40;;;;;;5115002;27;45624;-66
2023/06/08 11:34:19;;;;;;;9.25;5.25;;;20.30;84.60;;;;;;5106057;27;45202;-70
2023/06/08 11:36:46;;;;;;;9.88;5.70;;;20.30;85.10;;;;;;5119833;27;46705;-74
2023/06/08 11:39:13;;;;;;;12.93;5.80;;;20.40;87.70;;;;;;5110140;27;45337;-70
2023/06/08 11:41:41;;;;;;;12.23;6.15;;;20.40;89.40;;;;;;5125269;27;45356;-69
2023/06/08 11:44:09;;;;;;;11.50;5.82;;;20.40;87.60;;;;;;5127026;27;45590;-70
2023/06/08 11:46:38;;;;;;;8.75;5.55;;;20.10;88.50;;;;;;5120820;27;45285;-69
2023/06/08 11:49:08;;;;;;;11.52;5.60;;;19.80;90.00;;;;;;5127673;27;45389;-71
2023/06/08 11:51:42;;;;;;;9.60;5.53;;;19.90;88.00;;;;;;5109845;27;45430;-71
2023/06/08 11:54:08;;;;;;;9.75;5.40;;;19.90;89.20;;;;;;5116571;27;45331;-70
2023/06/08 11:56:36;;;;;;;9.88;5.53;;;19.80;90.10;;;;;;5125661;27;46373;-70
2023/06/08 11:59:03;;;;;;;10.13;6.10;;;19.80;90.00;;;;;;5125006;27;45355;-71
2023/06/08 12:01:31;;;;;;;10.80;5.05;;;19.90;90.70;;;;;;5118257;27;45421;-69
2023/06/08 12:03:59;;;;;;;9.98;5.35;;;20.00;90.20;;;;;;5123908;27;45623;-71
2023/06/08 12:06:27;;;;;;;10.25;5.97;;;20.20;90.00;;;;;;5120046;27;47374;-71
2023/06/08 12:08:54;;;;;;;13.02;5.60;;;20.30;89.70;;;;;;5107398;27;45393;-71
2023/06/08 12:11:21;;;;;;;11.57;6.57;;;20.10;89.80;;;;;;5122315;27;45391;-71
2023/06/08 12:13:49;;;;;;;9.00;5.95;;;19.80;91.00;;;;;;5121002;27;45373;-71
2023/06/08 12:16:16;;;;;;;7.93;5.30;;;19.80;90.40;;;;;;5120670;27;47109;-71
2023/06/08 12:18:44;;;;;;;11.05;5.90;;;19.70;90.40;;;;;;5113731;27;45249;-71
2023/06/08 12:21:15;;;;;;;10.52;6.10;;;19.80;90.90;;;;;;5124307;27;45540;-71
2023/06/08 12:23:42;;;;;;;11.77;5.82;;;20.00;91.30;;;;;;5123463;27;45606;-71
2023/06/08 12:26:09;;;;;;;10.52;5.85;;;20.10;90.50;;;;;;5125040;27;45469;-71
2023/06/08 12:28:36;;;;;;;8.00;5.35;;;20.20;90.70;;;;;;5124243;27;45429;-71
2023/06/08 12:31:03;;;;;;;8.27;5.30;;;20.20;91.10;;;;;;5125140;27;45303;-73
2023/06/08 12:33:31;;;;;;;10.68;5.53;;;20.10;90.70;;;;;;5112399;27;45589;-74
2023/06/08 12:35:58;;;;;;;8.15;5.28;;;20.10;92.10;;;;;;5118067;27;46229;-73
2023/06/08 12:38:26;;;;;;;6.97;5.10;;;20.20;91.00;;;;;;5117140;27;45350;-73
2023/06/08 12:40:56;;;;;;;8.93;4.72;;;20.10;92.20;;;;;;5117641;27;45541;-73
2023/06/08 12:43:23;;;;;;;8.55;4.80;;;20.20;92.10;;;;;;5123392;27;45333;-72
2023/06/08 12:45:50;;;;;;;7.72;5.00;;;20.30;91.30;;;;;;5116311;27;47975;-72